sensor_id;sensor_type;location;lat;lon;timestamp;P1;durP1;ratioP1;P2;durP2;ratioP2
49590;SDS011;35496;-21.974;-46.800;2023-06-14T00:01:51;33.22;;;15.30;;
49590;SDS011;35496;-21.974;-46.800;2023-06-14T00:04:17;19.65;;;12.63;;
49590;SDS011;35496;-21.974;-46.800;2023-06-14T00:06:44;16.50;;;10.15;;
49590;SDS011;35496;-21.974;-46.800;2023-06-14T00:09:14;22.35;;;13.80;;
49590;SDS011;35496;-21.974;-46.800;2023-06-14T00:11:42;22.75;;;14.10;;
49590;SDS011;35496;-21.974;-46.800;2023-06-14T00:14:09;23.80;;;14.38;;
49590;SDS011;35496;-21.974;-46.800;2023-06-14T00:16:35;21.75;;;13.70;;
49590;SDS011;35496;-21.974;-46.800;2023-06-14T00:19:02;26.85;;;13.65;;
49590;SDS011;35496;-21.974;-46.800;2023-06-14T00:21:31;21.52;;;15.05;;
49590;SDS011;35496;-21.974;-46.800;2023-06-14T00:23:57;21.80;;;12.63;;
49590;SDS011;35496;-21.974;-46.800;2023-06-14T00:26:24;20.83;;;13.65;;
49590;SDS011;35496;-21.974;-46.800;2023-06-14T00:28:51;19.13;;;12.60;;
49590;SDS011;35496;-21.974;-46.800;2023-06-14T00:31:18;15.73;;;11.13;;
49590;SDS011;35496;-21.974;-46.800;2023-06-14T00:33:46;24.65;;;16.42;;
49590;SDS011;35496;-21.974;-46.800;2023-06-14T00:36:12;37.85;;;16.45;;
49590;SDS011;35496;-21.974;-46.800;2023-06-14T00:38:38;28.05;;;14.07;;
49590;SDS011;35496;-21.974;-46.800;2023-06-14T00:41:04;21.88;;;11.73;;
49590;SDS011;35496;-21.974;-46.800;2023-06-14T00:43:31;34.53;;;15.88;;
49590;SDS011;35496;-21.974;-46.800;2023-06-14T00:45:57;27.15;;;12.32;;
49590;SDS011;35496;-21.974;-46.800;2023-06-14T00:48:23;30.58;;;15.65;;
49590;SDS011;35496;-21.974;-46.800;2023-06-14T00:50:50;24.88;;;12.73;;
49590;SDS011;35496;-21.974;-46.800;2023-06-14T00:53:18;16.85;;;10.88;;
49590;SDS011;35496;-21.974;-46.800;2023-06-14T00:55:46;19.65;;;8.88;;
49590;SDS011;35496;-21.974;-46.800;2023-06-14T00:58:12;14.77;;;9.43;;
49590;SDS011;35496;-21.974;-46.800;2023-06-14T01:00:39;16.33;;;8.68;;
49590;SDS011;35496;-21.974;-46.800;2023-06-14T01:03:05;13.50;;;8.50;;
49590;SDS011;35496;-21.974;-46.800;2023-06-14T01:05:32;14.57;;;8.77;;
49590;SDS011;35496;-21.974;-46.800;2023-06-14T01:15:20;8.90;;;6.60;;
49590;SDS011;35496;-21.974;-46.800;2023-06-14T01:17:47;9.55;;;7.57;;
49590;SDS011;35496;-21.974;-46.800;2023-06-14T01:20:17;6.78;;;5.85;;
49590;SDS011;35496;-21.974;-46.800;2023-06-14T01:22:52;13.98;;;9.57;;
49590;SDS011;35496;-21.974;-46.800;2023-06-14T01:25:18;16.88;;;9.80;;
49590;SDS011;35496;-21.974;-46.800;2023-06-14T01:27:52;17.75;;;11.77;;
49590;SDS011;35496;-21.974;-46.800;2023-06-14T01:30:19;17.92;;;9.77;;
49590;SDS011;35496;-21.974;-46.800;2023-06-14T01:32:46;14.80;;;10.27;;
49590;SDS011;35496;-21.974;-46.800;2023-06-14T01:35:16;14.52;;;8.43;;
49590;SDS011;35496;-21.974;-46.800;2023-06-14T01:37:42;11.68;;;8.40;;
49590;SDS011;35496;-21.974;-46.800;2023-06-14T01:40:09;10.32;;;7.32;;
49590;SDS011;35496;-21.974;-46.800;2023-06-14T01:42:36;9.75;;;6.80;;
49590;SDS011;35496;-21.974;-46.800;2023-06-14T01:45:04;8.75;;;7.00;;
49590;SDS011;35496;-21.974;-46.800;2023-06-14T01:47:31;14.00;;;8.15;;
49590;SDS011;35496;-21.974;-46.800;2023-06-14T01:49:58;11.05;;;7.65;;
49590;SDS011;35496;-21.974;-46.800;2023-06-14T01:52:24;13.60;;;7.22;;
49590;SDS011;35496;-21.974;-46.800;2023-06-14T01:54:50;9.95;;;7.13;;
49590;SDS011;35496;-21.974;-46.800;2023-06-14T01:57:17;14.60;;;7.60;;
49590;SDS011;35496;-21.974;-46.800;2023-06-14T01:59:43;10.50;;;7.75;;
49590;SDS011;35496;-21.974;-46.800;2023-06-14T02:02:16;11.10;;;7.35;;
49590;SDS011;35496;-21.974;-46.800;2023-06-14T02:04:42;14.18;;;8.00;;
49590;SDS011;35496;-21.974;-46.800;2023-06-14T02:07:08;8.25;;;6.68;;
49590;SDS011;35496;-21.974;-46.800;2023-06-14T02:09:34;14.60;;;6.95;;
49590;SDS011;35496;-21.974;-46.800;2023-06-14T02:12:01;11.18;;;7.57;;
49590;SDS011;35496;-21.974;-46.800;2023-06-14T02:14:27;21.67;;;8.40;;
49590;SDS011;35496;-21.974;-46.800;2023-06-14T02:16:59;13.02;;;8.05;;
49590;SDS011;35496;-21.974;-46.800;2023-06-14T02:19:26;10.50;;;6.72;;
49590;SDS011;35496;-21.974;-46.800;2023-06-14T02:21:52;8.35;;;6.75;;
49590;SDS011;35496;-21.974;-46.800;2023-06-14T02:24:18;9.05;;;7.03;;
49590;SDS011;35496;-21.974;-46.800;2023-06-14T02:26:45;7.05;;;6.35;;
49590;SDS011;35496;-21.974;-46.800;2023-06-14T02:29:11;10.32;;;6.45;;
49590;SDS011;35496;-21.974;-46.800;2023-06-14T02:31:40;8.82;;;7.97;;
49590;SDS011;35496;-21.974;-46.800;2023-06-14T02:34:06;13.63;;;8.88;;
49590;SDS011;35496;-21.974;-46.800;2023-06-14T02:36:34;9.15;;;7.20;;
49590;SDS011;35496;-21.974;-46.800;2023-06-14T02:39:00;12.93;;;7.28;;
49590;SDS011;35496;-21.974;-46.800;2023-06-14T02:41:26;12.45;;;6.78;;
49590;SDS011;35496;-21.974;-46.800;2023-06-14T02:43:53;9.32;;;7.25;;
49590;SDS011;35496;-21.974;-46.800;2023-06-14T02:46:19;15.07;;;7.40;;
49590;SDS011;35496;-21.974;-46.800;2023-06-14T02:48:45;12.23;;;7.60;;
49590;SDS011;35496;-21.974;-46.800;2023-06-14T02:51:11;7.63;;;5.82;;
49590;SDS011;35496;-21.974;-46.800;2023-06-14T02:53:38;10.40;;;7.55;;
49590;SDS011;35496;-21.974;-46.800;2023-06-14T02:56:04;6.82;;;6.13;;
49590;SDS011;35496;-21.974;-46.800;2023-06-14T02:58:30;10.57;;;7.72;;
49590;SDS011;35496;-21.974;-46.800;2023-06-14T03:00:56;8.43;;;6.68;;
49590;SDS011;35496;-21.974;-46.800;2023-06-14T03:03:23;7.72;;;6.93;;
49590;SDS011;35496;-21.974;-46.800;2023-06-14T03:05:50;10.73;;;6.68;;
49590;SDS011;35496;-21.974;-46.800;2023-06-14T03:08:16;9.30;;;5.63;;
49590;SDS011;35496;-21.974;-46.800;2023-06-14T03:10:47;16.77;;;6.55;;
49590;SDS011;35496;-21.974;-46.800;2023-06-14T03:13:14;9.05;;;6.90;;
49590;SDS011;35496;-21.974;-46.800;2023-06-14T03:15:41;9.45;;;6.60;;
49590;SDS011;35496;-21.974;-46.800;2023-06-14T03:18:08;10.50;;;6.18;;
49590;SDS011;35496;-21.974;-46.800;2023-06-14T03:20:35;9.98;;;6.60;;
49590;SDS011;35496;-21.974;-46.800;2023-06-14T03:23:01;7.95;;;6.95;;
49590;SDS011;35496;-21.974;-46.800;2023-06-14T03:25:28;9.25;;;7.57;;
49590;SDS011;35496;-21.974;-46.800;2023-06-14T03:27:58;10.25;;;7.00;;
49590;SDS011;35496;-21.974;-46.800;2023-06-14T03:30:24;6.70;;;6.03;;
49590;SDS011;35496;-21.974;-46.800;2023-06-14T03:32:50;9.63;;;6.63;;
49590;SDS011;35496;-21.974;-46.800;2023-06-14T03:35:18;10.35;;;7.78;;
49590;SDS011;35496;-21.974;-46.800;2023-06-14T03:37:45;8.48;;;6.00;;
49590;SDS011;35496;-21.974;-46.800;2023-06-14T03:40:12;8.68;;;6.47;;
49590;SDS011;35496;-21.974;-46.800;2023-06-14T03:42:39;11.35;;;6.97;;
49590;SDS011;35496;-21.974;-46.800;2023-06-14T03:45:05;9.05;;;5.97;;
49590;SDS011;35496;-21.974;-46.800;2023-06-14T03:47:32;24.40;;;8.02;;
49590;SDS011;35496;-21.974;-46.800;2023-06-14T03:49:58;11.27;;;7.07;;
49590;SDS011;35496;-21.974;-46.800;2023-06-14T03:52:24;9.70;;;6.72;;
49590;SDS011;35496;-21.974;-46.800;2023-06-14T03:54:50;9.65;;;7.28;;
49590;SDS011;35496;-21.974;-46.800;2023-06-14T03:57:16;10.20;;;7.15;;
49590;SDS011;35496;-21.974;-46.800;2023-06-14T03:59:43;11.00;;;6.70;;
49590;SDS011;35496;-21.974;-46.800;2023-06-14T04:02:09;9.90;;;7.63;;
49590;SDS011;35496;-21.974;-46.800;2023-06-14T04:04:35;9.65;;;7.82;;
49590;SDS011;35496;-21.974;-46.800;2023-06-14T04:07:02;9.15;;;7.88;;
49590;SDS011;35496;-21.974;-46.800;2023-06-14T04:09:29;10.77;;;8.65;;
49590;SDS011;35496;-21.974;-46.800;2023-06-14T04:11:55;14.70;;;8.95;;
49590;SDS011;35496;-21.974;-46.800;2023-06-14T04:14:21;8.90;;;7.35;;
49590;SDS011;35496;-21.974;-46.800;2023-06-14T04:16:48;17.63;;;9.93;;
49590;SDS011;35496;-21.974;-46.800;2023-06-14T04:19:14;17.25;;;13.43;;
49590;SDS011;35496;-21.974;-46.800;2023-06-14T04:21:43;13.30;;;10.55;;
49590;SDS011;35496;-21.974;-46.800;2023-06-14T04:24:09;19.55;;;12.18;;
49590;SDS011;35496;-21.974;-46.800;2023-06-14T04:26:39;13.48;;;10.00;;
49590;SDS011;35496;-21.974;-46.800;2023-06-14T04:29:06;15.25;;;12.00;;
49590;SDS011;35496;-21.974;-46.800;2023-06-14T04:31:32;21.95;;;12.43;;
49590;SDS011;35496;-21.974;-46.800;2023-06-14T04:34:03;16.35;;;10.82;;
49590;SDS011;35496;-21.974;-46.800;2023-06-14T04:36:32;17.02;;;11.32;;
49590;SDS011;35496;-21.974;-46.800;2023-06-14T04:39:00;19.08;;;12.50;;
49590;SDS011;35496;-21.974;-46.800;2023-06-14T04:41:28;18.92;;;12.13;;
49590;SDS011;35496;-21.974;-46.800;2023-06-14T04:43:56;13.65;;;9.15;;
49590;SDS011;35496;-21.974;-46.800;2023-06-14T04:46:24;15.27;;;10.55;;
49590;SDS011;35496;-21.974;-46.800;2023-06-14T04:48:50;17.88;;;11.63;;
49590;SDS011;35496;-21.974;-46.800;2023-06-14T04:51:16;15.75;;;11.30;;
49590;SDS011;35496;-21.974;-46.800;2023-06-14T04:53:46;12.50;;;9.20;;
49590;SDS011;35496;-21.974;-46.800;2023-06-14T04:56:12;17.17;;;9.63;;
49590;SDS011;35496;-21.974;-46.800;2023-06-14T04:58:38;13.68;;;9.15;;
49590;SDS011;35496;-21.974;-46.800;2023-06-14T05:01:04;11.77;;;9.45;;
49590;SDS011;35496;-21.974;-46.800;2023-06-14T05:03:30;13.00;;;8.80;;
49590;SDS011;35496;-21.974;-46.800;2023-06-14T05:05:56;14.15;;;9.40;;
49590;SDS011;35496;-21.974;-46.800;2023-06-14T05:08:22;16.60;;;11.55;;
49590;SDS011;35496;-21.974;-46.800;2023-06-14T05:10:49;16.88;;;12.43;;
49590;SDS011;35496;-21.974;-46.800;2023-06-14T05:13:15;20.35;;;13.70;;
49590;SDS011;35496;-21.974;-46.800;2023-06-14T05:15:41;16.55;;;11.93;;
49590;SDS011;35496;-21.974;-46.800;2023-06-14T05:18:08;24.92;;;14.02;;
49590;SDS011;35496;-21.974;-46.800;2023-06-14T05:20:35;20.52;;;12.45;;
49590;SDS011;35496;-21.974;-46.800;2023-06-14T05:23:02;21.40;;;12.98;;
49590;SDS011;35496;-21.974;-46.800;2023-06-14T05:25:28;20.27;;;14.10;;
49590;SDS011;35496;-21.974;-46.800;2023-06-14T05:27:55;23.40;;;12.02;;
49590;SDS011;35496;-21.974;-46.800;2023-06-14T05:30:21;14.43;;;10.25;;
49590;SDS011;35496;-21.974;-46.800;2023-06-14T05:32:47;17.33;;;11.43;;
49590;SDS011;35496;-21.974;-46.800;2023-06-14T05:35:13;16.50;;;11.25;;
49590;SDS011;35496;-21.974;-46.800;2023-06-14T05:37:39;14.45;;;11.40;;
49590;SDS011;35496;-21.974;-46.800;2023-06-14T05:40:06;13.40;;;10.27;;
49590;SDS011;35496;-21.974;-46.800;2023-06-14T05:42:32;12.82;;;10.20;;
49590;SDS011;35496;-21.974;-46.800;2023-06-14T05:44:58;12.60;;;9.65;;
49590;SDS011;35496;-21.974;-46.800;2023-06-14T05:47:25;16.25;;;10.23;;
49590;SDS011;35496;-21.974;-46.800;2023-06-14T05:49:53;15.75;;;9.95;;
49590;SDS011;35496;-21.974;-46.800;2023-06-14T05:52:20;17.42;;;9.90;;
49590;SDS011;35496;-21.974;-46.800;2023-06-14T05:54:46;15.23;;;11.35;;
49590;SDS011;35496;-21.974;-46.800;2023-06-14T05:57:12;13.48;;;10.68;;
49590;SDS011;35496;-21.974;-46.800;2023-06-14T05:59:38;16.23;;;12.50;;
49590;SDS011;35496;-21.974;-46.800;2023-06-14T06:02:05;20.65;;;12.30;;
49590;SDS011;35496;-21.974;-46.800;2023-06-14T06:04:31;15.23;;;11.60;;
49590;SDS011;35496;-21.974;-46.800;2023-06-14T06:06:57;16.25;;;12.10;;
49590;SDS011;35496;-21.974;-46.800;2023-06-14T06:09:23;13.95;;;12.02;;
49590;SDS011;35496;-21.974;-46.800;2023-06-14T06:11:49;18.27;;;14.43;;
49590;SDS011;35496;-21.974;-46.800;2023-06-14T06:14:15;23.02;;;12.85;;
49590;SDS011;35496;-21.974;-46.800;2023-06-14T06:16:41;15.25;;;12.15;;
49590;SDS011;35496;-21.974;-46.800;2023-06-14T06:19:07;20.10;;;13.27;;
49590;SDS011;35496;-21.974;-46.800;2023-06-14T06:21:33;14.95;;;12.52;;
49590;SDS011;35496;-21.974;-46.800;2023-06-14T06:24:00;25.38;;;12.43;;
49590;SDS011;35496;-21.974;-46.800;2023-06-14T06:26:28;20.83;;;11.88;;
49590;SDS011;35496;-21.974;-46.800;2023-06-14T06:28:55;14.88;;;11.05;;
49590;SDS011;35496;-21.974;-46.800;2023-06-14T06:31:22;14.60;;;11.68;;
49590;SDS011;35496;-21.974;-46.800;2023-06-14T06:33:49;17.83;;;10.50;;
49590;SDS011;35496;-21.974;-46.800;2023-06-14T06:36:15;20.02;;;12.60;;
49590;SDS011;35496;-21.974;-46.800;2023-06-14T06:38:41;15.48;;;10.90;;
49590;SDS011;35496;-21.974;-46.800;2023-06-14T06:41:07;14.55;;;11.73;;
49590;SDS011;35496;-21.974;-46.800;2023-06-14T06:43:33;12.45;;;10.95;;
49590;SDS011;35496;-21.974;-46.800;2023-06-14T06:45:59;14.43;;;11.45;;
49590;SDS011;35496;-21.974;-46.800;2023-06-14T06:48:25;15.60;;;10.70;;
49590;SDS011;35496;-21.974;-46.800;2023-06-14T06:50:51;20.52;;;10.52;;
49590;SDS011;35496;-21.974;-46.800;2023-06-14T06:53:17;11.27;;;10.10;;
49590;SDS011;35496;-21.974;-46.800;2023-06-14T06:55:44;19.92;;;10.57;;
49590;SDS011;35496;-21.974;-46.800;2023-06-14T06:58:10;14.95;;;10.07;;
49590;SDS011;35496;-21.974;-46.800;2023-06-14T07:00:36;15.45;;;9.23;;
49590;SDS011;35496;-21.974;-46.800;2023-06-14T07:03:02;17.45;;;10.52;;
49590;SDS011;35496;-21.974;-46.800;2023-06-14T07:05:29;14.30;;;11.70;;
49590;SDS011;35496;-21.974;-46.800;2023-06-14T07:07:56;13.07;;;11.38;;
49590;SDS011;35496;-21.974;-46.800;2023-06-14T07:10:22;12.35;;;10.93;;
49590;SDS011;35496;-21.974;-46.800;2023-06-14T07:12:50;17.42;;;11.10;;
49590;SDS011;35496;-21.974;-46.800;2023-06-14T07:15:16;14.60;;;11.10;;
49590;SDS011;35496;-21.974;-46.800;2023-06-14T07:17:42;15.32;;;11.80;;
49590;SDS011;35496;-21.974;-46.800;2023-06-14T07:20:09;16.08;;;12.13;;
49590;SDS011;35496;-21.974;-46.800;2023-06-14T07:22:38;16.02;;;12.00;;
49590;SDS011;35496;-21.974;-46.800;2023-06-14T07:25:06;22.27;;;12.93;;
49590;SDS011;35496;-21.974;-46.800;2023-06-14T07:27:33;20.80;;;15.00;;
49590;SDS011;35496;-21.974;-46.800;2023-06-14T07:29:59;21.10;;;14.95;;
49590;SDS011;35496;-21.974;-46.800;2023-06-14T07:32:25;25.10;;;14.85;;
49590;SDS011;35496;-21.974;-46.800;2023-06-14T07:34:52;22.20;;;16.33;;
49590;SDS011;35496;-21.974;-46.800;2023-06-14T07:37:18;22.92;;;15.25;;
49590;SDS011;35496;-21.974;-46.800;2023-06-14T07:39:44;21.92;;;15.45;;
49590;SDS011;35496;-21.974;-46.800;2023-06-14T07:42:10;20.30;;;14.13;;
49590;SDS011;35496;-21.974;-46.800;2023-06-14T07:44:36;21.17;;;16.23;;
49590;SDS011;35496;-21.974;-46.800;2023-06-14T07:47:02;20.92;;;18.05;;
49590;SDS011;35496;-21.974;-46.800;2023-06-14T07:49:28;19.95;;;15.43;;
49590;SDS011;35496;-21.974;-46.800;2023-06-14T07:51:55;23.50;;;17.38;;
49590;SDS011;35496;-21.974;-46.800;2023-06-14T07:54:21;19.92;;;15.85;;
49590;SDS011;35496;-21.974;-46.800;2023-06-14T07:56:51;20.75;;;16.05;;
49590;SDS011;35496;-21.974;-46.800;2023-06-14T07:59:17;19.85;;;16.10;;
49590;SDS011;35496;-21.974;-46.800;2023-06-14T08:01:44;23.73;;;17.02;;
49590;SDS011;35496;-21.974;-46.800;2023-06-14T08:04:10;17.77;;;14.93;;
49590;SDS011;35496;-21.974;-46.800;2023-06-14T08:06:36;19.95;;;14.57;;
49590;SDS011;35496;-21.974;-46.800;2023-06-14T08:09:03;21.48;;;16.02;;
49590;SDS011;35496;-21.974;-46.800;2023-06-14T08:11:29;17.40;;;14.68;;
49590;SDS011;35496;-21.974;-46.800;2023-06-14T08:13:55;19.88;;;14.20;;
49590;SDS011;35496;-21.974;-46.800;2023-06-14T08:16:21;18.17;;;14.10;;
49590;SDS011;35496;-21.974;-46.800;2023-06-14T08:18:47;17.05;;;15.25;;
49590;SDS011;35496;-21.974;-46.800;2023-06-14T08:21:13;19.02;;;13.90;;
49590;SDS011;35496;-21.974;-46.800;2023-06-14T08:23:40;17.67;;;14.45;;
49590;SDS011;35496;-21.974;-46.800;2023-06-14T08:26:08;20.88;;;16.10;;
49590;SDS011;35496;-21.974;-46.800;2023-06-14T08:28:34;17.10;;;14.77;;
49590;SDS011;35496;-21.974;-46.800;2023-06-14T08:31:00;20.10;;;14.70;;
49590;SDS011;35496;-21.974;-46.800;2023-06-14T08:33:27;22.08;;;15.10;;
49590;SDS011;35496;-21.974;-46.800;2023-06-14T08:35:53;17.45;;;12.90;;
49590;SDS011;35496;-21.974;-46.800;2023-06-14T08:38:19;23.88;;;15.82;;
49590;SDS011;35496;-21.974;-46.800;2023-06-14T08:40:48;24.35;;;14.48;;
49590;SDS011;35496;-21.974;-46.800;2023-06-14T08:43:16;18.17;;;15.10;;
49590;SDS011;35496;-21.974;-46.800;2023-06-14T08:45:42;22.15;;;15.75;;
49590;SDS011;35496;-21.974;-46.800;2023-06-14T08:48:08;20.92;;;15.93;;
49590;SDS011;35496;-21.974;-46.800;2023-06-14T08:50:34;20.35;;;15.07;;
49590;SDS011;35496;-21.974;-46.800;2023-06-14T08:53:02;20.58;;;15.45;;
49590;SDS011;35496;-21.974;-46.800;2023-06-14T08:55:28;23.98;;;18.13;;
49590;SDS011;35496;-21.974;-46.800;2023-06-14T09:00:43;27.92;;;17.25;;
49590;SDS011;35496;-21.974;-46.800;2023-06-14T09:03:09;20.23;;;17.27;;
49590;SDS011;35496;-21.974;-46.800;2023-06-14T09:05:38;21.88;;;15.68;;
49590;SDS011;35496;-21.974;-46.800;2023-06-14T09:08:04;21.25;;;15.68;;
49590;SDS011;35496;-21.974;-46.800;2023-06-14T09:10:31;25.30;;;17.20;;
49590;SDS011;35496;-21.974;-46.800;2023-06-14T09:13:00;29.08;;;17.25;;
49590;SDS011;35496;-21.974;-46.800;2023-06-14T09:15:27;27.33;;;17.58;;
49590;SDS011;35496;-21.974;-46.800;2023-06-14T09:17:53;24.08;;;17.55;;
49590;SDS011;35496;-21.974;-46.800;2023-06-14T09:20:19;21.45;;;16.77;;
49590;SDS011;35496;-21.974;-46.800;2023-06-14T09:22:45;18.63;;;14.98;;
49590;SDS011;35496;-21.974;-46.800;2023-06-14T09:25:11;20.60;;;12.57;;
49590;SDS011;35496;-21.974;-46.800;2023-06-14T09:27:40;20.05;;;12.82;;
49590;SDS011;35496;-21.974;-46.800;2023-06-14T09:30:10;18.80;;;14.63;;
49590;SDS011;35496;-21.974;-46.800;2023-06-14T09:32:54;16.38;;;12.65;;
49590;SDS011;35496;-21.974;-46.800;2023-06-14T09:35:20;18.52;;;12.65;;
49590;SDS011;35496;-21.974;-46.800;2023-06-14T09:37:46;18.10;;;13.73;;
49590;SDS011;35496;-21.974;-46.800;2023-06-14T09:40:13;18.83;;;13.88;;
49590;SDS011;35496;-21.974;-46.800;2023-06-14T09:42:39;20.45;;;13.32;;
49590;SDS011;35496;-21.974;-46.800;2023-06-14T09:45:07;19.35;;;14.30;;
49590;SDS011;35496;-21.974;-46.800;2023-06-14T09:47:33;19.88;;;13.88;;
49590;SDS011;35496;-21.974;-46.800;2023-06-14T09:49:59;21.30;;;15.50;;
49590;SDS011;35496;-21.974;-46.800;2023-06-14T09:52:25;19.52;;;13.98;;
49590;SDS011;35496;-21.974;-46.800;2023-06-14T09:54:53;21.08;;;16.20;;
49590;SDS011;35496;-21.974;-46.800;2023-06-14T09:57:21;21.80;;;14.35;;
49590;SDS011;35496;-21.974;-46.800;2023-06-14T09:59:48;20.13;;;15.18;;
49590;SDS011;35496;-21.974;-46.800;2023-06-14T10:02:18;24.75;;;14.82;;
49590;SDS011;35496;-21.974;-46.800;2023-06-14T10:04:50;26.85;;;17.75;;
49590;SDS011;35496;-21.974;-46.800;2023-06-14T10:07:19;21.25;;;14.13;;
49590;SDS011;35496;-21.974;-46.800;2023-06-14T10:09:50;21.55;;;13.75;;
49590;SDS011;35496;-21.974;-46.800;2023-06-14T10:12:16;21.38;;;17.02;;
49590;SDS011;35496;-21.974;-46.800;2023-06-14T10:14:48;25.63;;;15.45;;
49590;SDS011;35496;-21.974;-46.800;2023-06-14T10:17:23;21.40;;;14.93;;
49590;SDS011;35496;-21.974;-46.800;2023-06-14T10:19:56;27.13;;;15.48;;
49590;SDS011;35496;-21.974;-46.800;2023-06-14T10:22:32;23.13;;;15.32;;
49590;SDS011;35496;-21.974;-46.800;2023-06-14T10:25:01;27.08;;;18.23;;
49590;SDS011;35496;-21.974;-46.800;2023-06-14T10:27:27;41.15;;;23.65;;
49590;SDS011;35496;-21.974;-46.800;2023-06-14T10:32:23;23.17;;;17.85;;
49590;SDS011;35496;-21.974;-46.800;2023-06-14T10:35:22;23.25;;;17.33;;
49590;SDS011;35496;-21.974;-46.800;2023-06-14T10:37:41;23.70;;;18.63;;
49590;SDS011;35496;-21.974;-46.800;2023-06-14T10:40:08;28.67;;;20.13;;
49590;SDS011;35496;-21.974;-46.800;2023-06-14T10:42:37;24.33;;;18.58;;
49590;SDS011;35496;-21.974;-46.800;2023-06-14T10:45:03;21.77;;;14.77;;
49590;SDS011;35496;-21.974;-46.800;2023-06-14T10:47:32;25.27;;;16.10;;
49590;SDS011;35496;-21.974;-46.800;2023-06-14T10:50:10;25.98;;;16.02;;
49590;SDS011;35496;-21.974;-46.800;2023-06-14T10:52:40;17.50;;;11.00;;
49590;SDS011;35496;-21.974;-46.800;2023-06-14T10:57:50;15.48;;;11.07;;
49590;SDS011;35496;-21.974;-46.800;2023-06-14T11:00:18;17.50;;;10.57;;
49590;SDS011;35496;-21.974;-46.800;2023-06-14T11:05:31;21.27;;;10.52;;
49590;SDS011;35496;-21.974;-46.800;2023-06-14T11:08:18;19.55;;;13.50;;
49590;SDS011;35496;-21.974;-46.800;2023-06-14T11:10:47;23.60;;;13.80;;
49590;SDS011;35496;-21.974;-46.800;2023-06-14T11:13:13;18.33;;;12.32;;
49590;SDS011;35496;-21.974;-46.800;2023-06-14T11:15:45;22.40;;;13.27;;
49590;SDS011;35496;-21.974;-46.800;2023-06-14T11:18:13;21.45;;;11.90;;
49590;SDS011;35496;-21.974;-46.800;2023-06-14T11:20:40;14.00;;;11.13;;
49590;SDS011;35496;-21.974;-46.800;2023-06-14T11:23:06;18.67;;;12.02;;
49590;SDS011;35496;-21.974;-46.800;2023-06-14T11:25:32;16.75;;;11.68;;
49590;SDS011;35496;-21.974;-46.800;2023-06-14T11:27:58;17.52;;;11.05;;
49590;SDS011;35496;-21.974;-46.800;2023-06-14T11:30:25;13.60;;;10.48;;
49590;SDS011;35496;-21.974;-46.800;2023-06-14T11:32:52;12.15;;;10.52;;
49590;SDS011;35496;-21.974;-46.800;2023-06-14T11:35:19;14.05;;;10.60;;
49590;SDS011;35496;-21.974;-46.800;2023-06-14T11:37:45;16.13;;;9.60;;
49590;SDS011;35496;-21.974;-46.800;2023-06-14T11:40:11;9.98;;;8.90;;
49590;SDS011;35496;-21.974;-46.800;2023-06-14T11:42:39;11.95;;;10.63;;
49590;SDS011;35496;-21.974;-46.800;2023-06-14T11:45:07;11.52;;;8.65;;
49590;SDS011;35496;-21.974;-46.800;2023-06-14T11:47:33;14.68;;;9.93;;
49590;SDS011;35496;-21.974;-46.800;2023-06-14T11:50:00;9.02;;;8.10;;
49590;SDS011;35496;-21.974;-46.800;2023-06-14T11:52:26;11.25;;;9.15;;
49590;SDS011;35496;-21.974;-46.800;2023-06-14T11:54:52;15.55;;;9.10;;
49590;SDS011;35496;-21.974;-46.800;2023-06-14T11:57:18;14.02;;;10.18;;
49590;SDS011;35496;-21.974;-46.800;2023-06-14T11:59:45;16.75;;;9.63;;
49590;SDS011;35496;-21.974;-46.800;2023-06-14T12:02:15;28.42;;;14.43;;
49590;SDS011;35496;-21.974;-46.800;2023-06-14T12:04:42;15.15;;;12.38;;
49590;SDS011;35496;-21.974;-46.800;2023-06-14T12:07:11;21.55;;;14.88;;
49590;SDS011;35496;-21.974;-46.800;2023-06-14T12:09:42;16.58;;;12.05;;
49590;SDS011;35496;-21.974;-46.800;2023-06-14T12:12:26;11.60;;;10.43;;
49590;SDS011;35496;-21.974;-46.800;2023-06-14T12:14:52;12.05;;;9.35;;
49590;SDS011;35496;-21.974;-46.800;2023-06-14T12:17:19;11.88;;;10.05;;
49590;SDS011;35496;-21.974;-46.800;2023-06-14T12:19:45;11.30;;;9.45;;
49590;SDS011;35496;-21.974;-46.800;2023-06-14T12:22:12;11.65;;;10.35;;
49590;SDS011;35496;-21.974;-46.800;2023-06-14T12:24:39;16.92;;;10.05;;
49590;SDS011;35496;-21.974;-46.800;2023-06-14T12:27:08;15.57;;;10.88;;
49590;SDS011;35496;-21.974;-46.800;2023-06-14T12:29:37;11.82;;;10.15;;
49590;SDS011;35496;-21.974;-46.800;2023-06-14T12:32:03;14.25;;;12.38;;
49590;SDS011;35496;-21.974;-46.800;2023-06-14T12:34:29;14.05;;;11.27;;
49590;SDS011;35496;-21.974;-46.800;2023-06-14T12:36:57;17.17;;;13.48;;
49590;SDS011;35496;-21.974;-46.800;2023-06-14T12:39:23;16.40;;;11.52;;
49590;SDS011;35496;-21.974;-46.800;2023-06-14T12:41:50;19.95;;;13.93;;
49590;SDS011;35496;-21.974;-46.800;2023-06-14T12:44:16;16.02;;;14.13;;
49590;SDS011;35496;-21.974;-46.800;2023-06-14T12:46:42;15.27;;;12.80;;
49590;SDS011;35496;-21.974;-46.800;2023-06-14T12:49:09;17.38;;;12.05;;
49590;SDS011;35496;-21.974;-46.800;2023-06-14T12:51:36;23.38;;;15.90;;
49590;SDS011;35496;-21.974;-46.800;2023-06-14T12:54:02;21.13;;;15.82;;
49590;SDS011;35496;-21.974;-46.800;2023-06-14T12:56:29;13.88;;;10.95;;
49590;SDS011;35496;-21.974;-46.800;2023-06-14T12:58:55;12.75;;;9.73;;
49590;SDS011;35496;-21.974;-46.800;2023-06-14T13:01:21;27.50;;;11.48;;
49590;SDS011;35496;-21.974;-46.800;2023-06-14T13:03:47;16.25;;;11.52;;
49590;SDS011;35496;-21.974;-46.800;2023-06-14T13:06:15;11.82;;;8.48;;
49590;SDS011;35496;-21.974;-46.800;2023-06-14T13:08:41;12.07;;;9.40;;
49590;SDS011;35496;-21.974;-46.800;2023-06-14T13:11:07;13.18;;;10.13;;
49590;SDS011;35496;-21.974;-46.800;2023-06-14T13:13:33;12.38;;;9.65;;
49590;SDS011;35496;-21.974;-46.800;2023-06-14T13:15:59;10.73;;;7.70;;
49590;SDS011;35496;-21.974;-46.800;2023-06-14T13:18:25;11.70;;;7.85;;
49590;SDS011;35496;-21.974;-46.800;2023-06-14T13:20:51;7.97;;;6.70;;
49590;SDS011;35496;-21.974;-46.800;2023-06-14T13:23:18;9.27;;;7.47;;
49590;SDS011;35496;-21.974;-46.800;2023-06-14T13:25:44;10.23;;;7.53;;
49590;SDS011;35496;-21.974;-46.800;2023-06-14T13:28:10;11.73;;;7.85;;
49590;SDS011;35496;-21.974;-46.800;2023-06-14T13:30:36;10.52;;;7.22;;
49590;SDS011;35496;-21.974;-46.800;2023-06-14T13:33:02;21.13;;;9.95;;
49590;SDS011;35496;-21.974;-46.800;2023-06-14T13:35:28;12.98;;;11.32;;
49590;SDS011;35496;-21.974;-46.800;2023-06-14T13:37:55;15.45;;;9.68;;
49590;SDS011;35496;-21.974;-46.800;2023-06-14T13:40:21;12.65;;;10.18;;
49590;SDS011;35496;-21.974;-46.800;2023-06-14T13:42:47;9.77;;;7.68;;
49590;SDS011;35496;-21.974;-46.800;2023-06-14T13:45:13;10.18;;;8.30;;
49590;SDS011;35496;-21.974;-46.800;2023-06-14T13:47:39;11.70;;;7.80;;
49590;SDS011;35496;-21.974;-46.800;2023-06-14T13:50:06;9.43;;;8.38;;
49590;SDS011;35496;-21.974;-46.800;2023-06-14T13:52:32;9.48;;;6.55;;
49590;SDS011;35496;-21.974;-46.800;2023-06-14T13:54:58;14.93;;;7.50;;
49590;SDS011;35496;-21.974;-46.800;2023-06-14T13:57:25;7.88;;;7.18;;
49590;SDS011;35496;-21.974;-46.800;2023-06-14T13:59:51;8.18;;;4.85;;
49590;SDS011;35496;-21.974;-46.800;2023-06-14T14:02:21;7.43;;;6.22;;
49590;SDS011;35496;-21.974;-46.800;2023-06-14T14:04:47;10.10;;;7.25;;
49590;SDS011;35496;-21.974;-46.800;2023-06-14T14:07:18;10.18;;;6.28;;
49590;SDS011;35496;-21.974;-46.800;2023-06-14T14:09:45;6.65;;;5.18;;